sensor_id;sensor_type;location;lat;lon;timestamp;P1;durP1;ratioP1;P2;durP2;ratioP2
14939;SDS011;11825;51.898;8.202;2023-05-07T00:04:02;5.20;;;4.70;;
14939;SDS011;11825;51.898;8.202;2023-05-07T00:09:18;5.40;;;4.70;;
14939;SDS011;11825;51.898;8.202;2023-05-07T00:14:58;5.80;;;5.10;;
14939;SDS011;11825;51.898;8.202;2023-05-07T00:26:53;6.60;;;6.00;;
14939;SDS011;11825;51.898;8.202;2023-05-07T00:38:17;7.88;;;7.18;;
14939;SDS011;11825;51.898;8.202;2023-05-07T00:43:57;9.35;;;8.55;;
14939;SDS011;11825;51.898;8.202;2023-05-07T00:49:45;10.95;;;9.95;;
14939;SDS011;11825;51.898;8.202;2023-05-07T00:55:08;11.15;;;10.15;;
14939;SDS011;11825;51.898;8.202;2023-05-07T01:00:34;12.17;;;11.17;;
14939;SDS011;11825;51.898;8.202;2023-05-07T01:06:09;12.80;;;11.55;;
14939;SDS011;11825;51.898;8.202;2023-05-07T01:11:12;13.63;;;12.10;;
14939;SDS011;11825;51.898;8.202;2023-05-07T01:16:15;13.38;;;12.18;;
14939;SDS011;11825;51.898;8.202;2023-05-07T01:21:18;13.93;;;12.73;;
14939;SDS011;11825;51.898;8.202;2023-05-07T01:26:20;13.48;;;12.27;;
14939;SDS011;11825;51.898;8.202;2023-05-07T01:31:25;15.27;;;13.45;;
14939;SDS011;11825;51.898;8.202;2023-05-07T01:36:27;14.85;;;13.05;;
14939;SDS011;11825;51.898;8.202;2023-05-07T01:41:31;13.93;;;12.70;;
14939;SDS011;11825;51.898;8.202;2023-05-07T01:46:34;16.10;;;14.20;;
14939;SDS011;11825;51.898;8.202;2023-05-07T01:51:37;14.73;;;13.52;;
14939;SDS011;11825;51.898;8.202;2023-05-07T01:56:39;16.07;;;14.67;;
14939;SDS011;11825;51.898;8.202;2023-05-07T02:01:40;17.20;;;15.60;;
14939;SDS011;11825;51.898;8.202;2023-05-07T02:06:42;18.23;;;16.73;;
14939;SDS011;11825;51.898;8.202;2023-05-07T02:11:44;18.50;;;16.80;;
14939;SDS011;11825;51.898;8.202;2023-05-07T02:16:46;19.35;;;17.73;;
14939;SDS011;11825;51.898;8.202;2023-05-07T02:21:48;18.02;;;16.48;;
14939;SDS011;11825;51.898;8.202;2023-05-07T02:26:50;17.63;;;16.13;;
14939;SDS011;11825;51.898;8.202;2023-05-07T02:31:52;17.63;;;16.02;;
14939;SDS011;11825;51.898;8.202;2023-05-07T02:36:54;17.92;;;16.33;;
14939;SDS011;11825;51.898;8.202;2023-05-07T02:41:56;17.85;;;16.10;;
14939;SDS011;11825;51.898;8.202;2023-05-07T02:46:58;17.60;;;16.00;;
14939;SDS011;11825;51.898;8.202;2023-05-07T02:52:00;17.45;;;15.95;;
14939;SDS011;11825;51.898;8.202;2023-05-07T02:57:02;18.57;;;17.07;;
14939;SDS011;11825;51.898;8.202;2023-05-07T03:08:20;19.35;;;17.45;;
14939;SDS011;11825;51.898;8.202;2023-05-07T03:13:25;18.87;;;17.10;;
14939;SDS011;11825;51.898;8.202;2023-05-07T03:18:28;17.90;;;16.33;;
14939;SDS011;11825;51.898;8.202;2023-05-07T03:23:31;19.70;;;17.83;;
14939;SDS011;11825;51.898;8.202;2023-05-07T03:28:33;20.00;;;18.30;;
14939;SDS011;11825;51.898;8.202;2023-05-07T03:33:34;19.50;;;17.58;;
14939;SDS011;11825;51.898;8.202;2023-05-07T03:38:36;20.10;;;18.20;;
14939;SDS011;11825;51.898;8.202;2023-05-07T03:43:38;19.47;;;17.83;;
14939;SDS011;11825;51.898;8.202;2023-05-07T03:48:40;20.55;;;18.75;;
14939;SDS011;11825;51.898;8.202;2023-05-07T03:53:42;20.48;;;18.65;;
14939;SDS011;11825;51.898;8.202;2023-05-07T03:58:44;20.38;;;18.58;;
14939;SDS011;11825;51.898;8.202;2023-05-07T04:03:46;20.15;;;18.33;;
14939;SDS011;11825;51.898;8.202;2023-05-07T04:08:47;20.83;;;19.00;;
14939;SDS011;11825;51.898;8.202;2023-05-07T04:13:49;21.15;;;19.13;;
14939;SDS011;11825;51.898;8.202;2023-05-07T04:18:51;19.60;;;17.90;;
14939;SDS011;11825;51.898;8.202;2023-05-07T04:23:53;20.80;;;18.90;;
14939;SDS011;11825;51.898;8.202;2023-05-07T04:28:55;19.48;;;17.65;;
14939;SDS011;11825;51.898;8.202;2023-05-07T04:33:58;23.33;;;21.17;;
14939;SDS011;11825;51.898;8.202;2023-05-07T04:38:59;20.00;;;18.20;;
14939;SDS011;11825;51.898;8.202;2023-05-07T04:44:01;21.67;;;19.67;;
14939;SDS011;11825;51.898;8.202;2023-05-07T04:49:05;20.33;;;18.42;;
14939;SDS011;11825;51.898;8.202;2023-05-07T04:54:07;21.23;;;18.93;;
14939;SDS011;11825;51.898;8.202;2023-05-07T04:59:10;18.93;;;17.13;;
14939;SDS011;11825;51.898;8.202;2023-05-07T05:04:12;19.83;;;17.93;;
14939;SDS011;11825;51.898;8.202;2023-05-07T05:09:16;20.90;;;19.00;;
14939;SDS011;11825;51.898;8.202;2023-05-07T05:14:18;20.03;;;18.03;;
14939;SDS011;11825;51.898;8.202;2023-05-07T05:19:21;21.93;;;19.70;;
14939;SDS011;11825;51.898;8.202;2023-05-07T05:24:23;20.70;;;18.73;;
14939;SDS011;11825;51.898;8.202;2023-05-07T05:29:25;23.65;;;21.17;;
14939;SDS011;11825;51.898;8.202;2023-05-07T05:34:26;23.40;;;20.80;;
14939;SDS011;11825;51.898;8.202;2023-05-07T05:39:28;23.47;;;18.27;;
14939;SDS011;11825;51.898;8.202;2023-05-07T05:44:30;22.23;;;19.90;;
14939;SDS011;11825;51.898;8.202;2023-05-07T05:49:32;21.97;;;19.87;;
14939;SDS011;11825;51.898;8.202;2023-05-07T05:54:34;25.20;;;19.53;;
14939;SDS011;11825;51.898;8.202;2023-05-07T05:59:38;23.83;;;21.27;;
14939;SDS011;11825;51.898;8.202;2023-05-07T06:10:02;21.10;;;19.07;;
14939;SDS011;11825;51.898;8.202;2023-05-07T06:26:14;22.50;;;20.20;;
14939;SDS011;11825;51.898;8.202;2023-05-07T06:31:16;24.60;;;20.27;;
14939;SDS011;11825;51.898;8.202;2023-05-07T06:36:22;22.23;;;20.07;;
14939;SDS011;11825;51.898;8.202;2023-05-07T06:41:23;23.83;;;21.27;;
14939;SDS011;11825;51.898;8.202;2023-05-07T06:46:25;23.40;;;21.10;;
14939;SDS011;11825;51.898;8.202;2023-05-07T06:51:27;22.95;;;20.75;;
14939;SDS011;11825;51.898;8.202;2023-05-07T06:56:28;22.70;;;20.37;;
14939;SDS011;11825;51.898;8.202;2023-05-07T07:01:30;21.37;;;19.33;;
14939;SDS011;11825;51.898;8.202;2023-05-07T07:11:45;22.10;;;19.87;;
14939;SDS011;11825;51.898;8.202;2023-05-07T07:16:47;21.53;;;19.33;;
14939;SDS011;11825;51.898;8.202;2023-05-07T07:21:49;22.07;;;19.33;;
14939;SDS011;11825;51.898;8.202;2023-05-07T07:26:50;20.10;;;18.20;;
14939;SDS011;11825;51.898;8.202;2023-05-07T07:31:52;19.80;;;17.80;;
14939;SDS011;11825;51.898;8.202;2023-05-07T07:36:54;22.07;;;18.67;;
14939;SDS011;11825;51.898;8.202;2023-05-07T07:41:56;21.67;;;18.97;;
14939;SDS011;11825;51.898;8.202;2023-05-07T07:46:58;19.77;;;17.53;;
14939;SDS011;11825;51.898;8.202;2023-05-07T07:52:00;19.03;;;17.10;;
14939;SDS011;11825;51.898;8.202;2023-05-07T07:57:01;17.93;;;16.13;;
14939;SDS011;11825;51.898;8.202;2023-05-07T08:02:03;19.53;;;17.53;;
14939;SDS011;11825;51.898;8.202;2023-05-07T08:07:05;19.47;;;17.47;;
14939;SDS011;11825;51.898;8.202;2023-05-07T08:12:07;18.73;;;16.93;;
14939;SDS011;11825;51.898;8.202;2023-05-07T08:17:08;17.77;;;16.17;;
14939;SDS011;11825;51.898;8.202;2023-05-07T08:22:11;17.40;;;15.77;;
14939;SDS011;11825;51.898;8.202;2023-05-07T08:27:13;18.17;;;16.47;;
14939;SDS011;11825;51.898;8.202;2023-05-07T09:10:02;14.33;;;12.83;;
14939;SDS011;11825;51.898;8.202;2023-05-07T09:28:46;12.60;;;11.40;;
14939;SDS011;11825;51.898;8.202;2023-05-07T09:40:42;12.00;;;10.60;;
14939;SDS011;11825;51.898;8.202;2023-05-07T09:53:39;10.73;;;8.97;;
14939;SDS011;11825;51.898;8.202;2023-05-07T10:19:46;9.80;;;8.83;;
14939;SDS011;11825;51.898;8.202;2023-05-07T10:24:48;11.73;;;10.57;;
14939;SDS011;11825;51.898;8.202;2023-05-07T10:30:02;15.23;;;12.43;;
14939;SDS011;11825;51.898;8.202;2023-05-07T10:35:09;11.80;;;10.70;;
14939;SDS011;11825;51.898;8.202;2023-05-07T10:40:16;23.80;;;21.83;;
14939;SDS011;11825;51.898;8.202;2023-05-07T10:45:24;11.87;;;10.87;;
14939;SDS011;11825;51.898;8.202;2023-05-07T10:50:26;11.23;;;10.23;;
14939;SDS011;11825;51.898;8.202;2023-05-07T10:55:30;12.27;;;10.87;;
14939;SDS011;11825;51.898;8.202;2023-05-07T11:05:39;11.87;;;10.77;;
14939;SDS011;11825;51.898;8.202;2023-05-07T11:10:49;10.53;;;9.63;;
14939;SDS011;11825;51.898;8.202;2023-05-07T11:15:57;11.80;;;10.70;;
14939;SDS011;11825;51.898;8.202;2023-05-07T11:21:00;10.43;;;9.53;;
14939;SDS011;11825;51.898;8.202;2023-05-07T11:26:02;10.83;;;9.80;;
14939;SDS011;11825;51.898;8.202;2023-05-07T11:31:05;12.60;;;11.30;;
14939;SDS011;11825;51.898;8.202;2023-05-07T11:36:07;10.47;;;9.57;;
14939;SDS011;11825;51.898;8.202;2023-05-07T11:41:09;11.03;;;9.23;;
14939;SDS011;11825;51.898;8.202;2023-05-07T11:46:12;9.80;;;8.97;;
14939;SDS011;11825;51.898;8.202;2023-05-07T11:51:18;9.87;;;8.97;;
14939;SDS011;11825;51.898;8.202;2023-05-07T11:56:21;10.77;;;9.70;;
14939;SDS011;11825;51.898;8.202;2023-05-07T12:01:23;9.63;;;8.70;;
14939;SDS011;11825;51.898;8.202;2023-05-07T12:06:25;10.50;;;9.50;;
14939;SDS011;11825;51.898;8.202;2023-05-07T12:11:26;9.37;;;8.57;;
14939;SDS011;11825;51.898;8.202;2023-05-07T12:16:28;10.03;;;9.03;;
14939;SDS011;11825;51.898;8.202;2023-05-07T12:21:30;8.30;;;7.60;;
14939;SDS011;11825;51.898;8.202;2023-05-07T12:26:32;9.33;;;8.50;;
14939;SDS011;11825;51.898;8.202;2023-05-07T12:31:42;8.80;;;8.03;;
14939;SDS011;11825;51.898;8.202;2023-05-07T12:36:44;8.67;;;7.80;;
14939;SDS011;11825;51.898;8.202;2023-05-07T12:41:55;9.70;;;8.80;;
14939;SDS011;11825;51.898;8.202;2023-05-07T12:47:02;8.00;;;7.27;;
14939;SDS011;11825;51.898;8.202;2023-05-07T12:52:07;8.47;;;7.23;;
14939;SDS011;11825;51.898;8.202;2023-05-07T12:57:15;6.97;;;6.27;;
14939;SDS011;11825;51.898;8.202;2023-05-07T13:02:21;7.53;;;6.77;;
14939;SDS011;11825;51.898;8.202;2023-05-07T13:07:34;7.03;;;6.37;;
14939;SDS011;11825;51.898;8.202;2023-05-07T13:12:36;6.60;;;5.97;;
14939;SDS011;11825;51.898;8.202;2023-05-07T13:17:44;7.50;;;6.90;;
14939;SDS011;11825;51.898;8.202;2023-05-07T13:22:46;5.93;;;5.33;;
14939;SDS011;11825;51.898;8.202;2023-05-07T13:27:48;5.63;;;5.00;;
14939;SDS011;11825;51.898;8.202;2023-05-07T13:39:06;5.67;;;5.17;;
14939;SDS011;11825;51.898;8.202;2023-05-07T13:44:08;5.70;;;4.97;;
14939;SDS011;11825;51.898;8.202;2023-05-07T13:49:12;6.83;;;5.03;;
14939;SDS011;11825;51.898;8.202;2023-05-07T13:54:14;4.77;;;4.33;;
14939;SDS011;11825;51.898;8.202;2023-05-07T13:59:19;5.73;;;5.23;;
14939;SDS011;11825;51.898;8.202;2023-05-07T14:10:31;4.93;;;4.53;;
14939;SDS011;11825;51.898;8.202;2023-05-07T14:29:17;6.27;;;5.50;;
14939;SDS011;11825;51.898;8.202;2023-05-07T14:35:15;9.67;;;4.87;;
14939;SDS011;11825;51.898;8.202;2023-05-07T14:40:17;5.43;;;4.80;;
14939;SDS011;11825;51.898;8.202;2023-05-07T14:45:20;7.70;;;5.93;;
14939;SDS011;11825;51.898;8.202;2023-05-07T14:50:22;5.68;;;5.18;;
14939;SDS011;11825;51.898;8.202;2023-05-07T14:55:25;4.40;;;4.00;;
14939;SDS011;11825;51.898;8.202;2023-05-07T15:00:27;5.57;;;4.53;;
14939;SDS011;11825;51.898;8.202;2023-05-07T15:05:29;5.43;;;4.90;;
14939;SDS011;11825;51.898;8.202;2023-05-07T15:10:34;5.20;;;4.80;;
14939;SDS011;11825;51.898;8.202;2023-05-07T15:15:41;5.07;;;4.67;;
14939;SDS011;11825;51.898;8.202;2023-05-07T15:20:45;6.00;;;5.40;;
14939;SDS011;11825;51.898;8.202;2023-05-07T15:25:46;4.80;;;4.40;;
14939;SDS011;11825;51.898;8.202;2023-05-07T15:30:52;5.80;;;5.07;;
14939;SDS011;11825;51.898;8.202;2023-05-07T15:35:56;5.07;;;4.57;;
14939;SDS011;11825;51.898;8.202;2023-05-07T15:40:59;7.97;;;6.23;;
14939;SDS011;11825;51.898;8.202;2023-05-07T15:46:01;7.70;;;7.00;;
14939;SDS011;11825;51.898;8.202;2023-05-07T15:51:03;9.20;;;6.83;;
14939;SDS011;11825;51.898;8.202;2023-05-07T15:56:06;7.75;;;6.95;;
14939;SDS011;11825;51.898;8.202;2023-05-07T16:01:09;7.50;;;6.90;;
14939;SDS011;11825;51.898;8.202;2023-05-07T16:06:11;8.57;;;7.87;;
14939;SDS011;11825;51.898;8.202;2023-05-07T16:11:13;8.40;;;7.70;;
14939;SDS011;11825;51.898;8.202;2023-05-07T16:16:15;8.07;;;7.35;;
14939;SDS011;11825;51.898;8.202;2023-05-07T16:21:16;9.48;;;8.77;;
14939;SDS011;11825;51.898;8.202;2023-05-07T16:26:18;8.80;;;8.07;;
14939;SDS011;11825;51.898;8.202;2023-05-07T16:31:20;8.73;;;8.03;;
14939;SDS011;11825;51.898;8.202;2023-05-07T16:36:21;8.57;;;7.80;;
14939;SDS011;11825;51.898;8.202;2023-05-07T16:41:23;9.57;;;8.67;;
14939;SDS011;11825;51.898;8.202;2023-05-07T16:46:25;8.83;;;7.93;;
14939;SDS011;11825;51.898;8.202;2023-05-07T16:51:27;9.57;;;8.77;;
14939;SDS011;11825;51.898;8.202;2023-05-07T16:56:29;9.20;;;8.50;;
14939;SDS011;11825;51.898;8.202;2023-05-07T17:01:31;9.20;;;8.40;;
14939;SDS011;11825;51.898;8.202;2023-05-07T17:06:33;9.23;;;8.47;;
14939;SDS011;11825;51.898;8.202;2023-05-07T17:11:35;9.83;;;9.03;;
14939;SDS011;11825;51.898;8.202;2023-05-07T17:16:36;10.33;;;9.23;;
14939;SDS011;11825;51.898;8.202;2023-05-07T17:21:38;9.50;;;8.60;;
14939;SDS011;11825;51.898;8.202;2023-05-07T17:26:40;10.13;;;9.23;;
14939;SDS011;11825;51.898;8.202;2023-05-07T17:31:43;8.07;;;7.47;;
14939;SDS011;11825;51.898;8.202;2023-05-07T17:36:45;10.10;;;9.07;;
14939;SDS011;11825;51.898;8.202;2023-05-07T17:41:46;9.87;;;8.67;;
14939;SDS011;11825;51.898;8.202;2023-05-07T17:46:48;11.40;;;10.40;;
14939;SDS011;11825;51.898;8.202;2023-05-07T17:51:50;10.87;;;9.93;;
14939;SDS011;11825;51.898;8.202;2023-05-07T17:56:56;10.37;;;9.37;;
14939;SDS011;11825;51.898;8.202;2023-05-07T18:01:57;9.00;;;8.20;;
14939;SDS011;11825;51.898;8.202;2023-05-07T18:07:00;10.17;;;9.17;;
14939;SDS011;11825;51.898;8.202;2023-05-07T18:12:02;11.00;;;10.03;;
14939;SDS011;11825;51.898;8.202;2023-05-07T18:17:04;10.93;;;10.00;;
14939;SDS011;11825;51.898;8.202;2023-05-07T18:22:05;10.50;;;9.60;;
14939;SDS011;11825;51.898;8.202;2023-05-07T18:27:07;9.60;;;8.70;;
14939;SDS011;11825;51.898;8.202;2023-05-07T18:32:09;11.00;;;9.93;;
14939;SDS011;11825;51.898;8.202;2023-05-07T18:37:11;10.67;;;9.60;;
14939;SDS011;11825;51.898;8.202;2023-05-07T18:42:13;41.23;;;37.27;;
14939;SDS011;11825;51.898;8.202;2023-05-07T18:47:15;11.50;;;10.30;;
14939;SDS011;11825;51.898;8.202;2023-05-07T18:52:18;12.87;;;11.37;;
14939;SDS011;11825;51.898;8.202;2023-05-07T18:57:22;10.47;;;9.47;;
14939;SDS011;11825;51.898;8.202;2023-05-07T19:02:23;10.77;;;9.63;;
14939;SDS011;11825;51.898;8.202;2023-05-07T19:07:25;11.17;;;10.07;;
14939;SDS011;11825;51.898;8.202;2023-05-07T19:12:27;10.70;;;9.43;;
14939;SDS011;11825;51.898;8.202;2023-05-07T19:17:29;10.03;;;9.13;;
14939;SDS011;11825;51.898;8.202;2023-05-07T19:22:31;9.98;;;9.18;;
14939;SDS011;11825;51.898;8.202;2023-05-07T19:27:32;9.97;;;9.17;;
14939;SDS011;11825;51.898;8.202;2023-05-07T19:32:34;10.73;;;9.73;;
14939;SDS011;11825;51.898;8.202;2023-05-07T19:37:36;10.52;;;9.63;;
14939;SDS011;11825;51.898;8.202;2023-05-07T19:42:38;10.40;;;9.55;;
14939;SDS011;11825;51.898;8.202;2023-05-07T19:47:40;9.07;;;8.37;;
14939;SDS011;11825;51.898;8.202;2023-05-07T19:52:42;9.40;;;8.60;;
14939;SDS011;11825;51.898;8.202;2023-05-07T19:57:43;9.10;;;8.40;;
14939;SDS011;11825;51.898;8.202;2023-05-07T20:02:50;8.35;;;7.55;;
14939;SDS011;11825;51.898;8.202;2023-05-07T20:07:53;8.93;;;8.15;;
14939;SDS011;11825;51.898;8.202;2023-05-07T20:12:55;8.77;;;8.07;;
14939;SDS011;11825;51.898;8.202;2023-05-07T20:17:57;7.47;;;6.87;;
14939;SDS011;11825;51.898;8.202;2023-05-07T20:22:59;8.70;;;8.00;;
14939;SDS011;11825;51.898;8.202;2023-05-07T20:28:01;8.23;;;7.53;;
14939;SDS011;11825;51.898;8.202;2023-05-07T20:33:02;8.68;;;7.97;;
14939;SDS011;11825;51.898;8.202;2023-05-07T20:38:24;8.40;;;7.70;;
14939;SDS011;11825;51.898;8.202;2023-05-07T20:43:41;9.23;;;8.52;;
14939;SDS011;11825;51.898;8.202;2023-05-07T20:48:42;9.48;;;8.75;;
14939;SDS011;11825;51.898;8.202;2023-05-07T20:53:44;8.85;;;8.13;;
14939;SDS011;11825;51.898;8.202;2023-05-07T20:58:48;9.68;;;8.90;;
14939;SDS011;11825;51.898;8.202;2023-05-07T21:03:49;9.43;;;8.63;;
14939;SDS011;11825;51.898;8.202;2023-05-07T21:08:54;9.77;;;8.97;;
14939;SDS011;11825;51.898;8.202;2023-05-07T21:13:56;9.43;;;8.63;;
14939;SDS011;11825;51.898;8.202;2023-05-07T21:18:57;9.55;;;8.85;;
14939;SDS011;11825;51.898;8.202;2023-05-07T21:23:59;9.45;;;8.65;;
14939;SDS011;11825;51.898;8.202;2023-05-07T21:29:01;9.38;;;8.60;;
14939;SDS011;11825;51.898;8.202;2023-05-07T21:34:03;9.40;;;8.52;;
14939;SDS011;11825;51.898;8.202;2023-05-07T21:44:09;8.90;;;8.15;;
14939;SDS011;11825;51.898;8.202;2023-05-07T21:49:11;8.30;;;7.50;;
14939;SDS011;11825;51.898;8.202;2023-05-07T21:54:13;8.57;;;7.77;;
14939;SDS011;11825;51.898;8.202;2023-05-07T21:59:15;8.82;;;8.02;;
14939;SDS011;11825;51.898;8.202;2023-05-07T22:04:17;9.23;;;8.33;;
14939;SDS011;11825;51.898;8.202;2023-05-07T22:09:20;10.00;;;8.00;;
14939;SDS011;11825;51.898;8.202;2023-05-07T22:14:22;8.67;;;7.87;;
14939;SDS011;11825;51.898;8.202;2023-05-07T22:19:24;7.93;;;7.17;;
14939;SDS011;11825;51.898;8.202;2023-05-07T22:24:25;7.77;;;7.17;;
14939;SDS011;11825;51.898;8.202;2023-05-07T22:29:28;8.97;;;7.97;;
14939;SDS011;11825;51.898;8.202;2023-05-07T22:34:31;8.53;;;7.73;;
14939;SDS011;11825;51.898;8.202;2023-05-07T22:39:33;8.40;;;7.50;;
14939;SDS011;11825;51.898;8.202;2023-05-07T22:44:35;10.47;;;8.87;;
14939;SDS011;11825;51.898;8.202;2023-05-07T22:49:37;8.73;;;7.77;;
14939;SDS011;11825;51.898;8.202;2023-05-07T22:54:39;8.60;;;7.80;;
14939;SDS011;11825;51.898;8.202;2023-05-07T22:59:40;9.37;;;8.53;;
14939;SDS011;11825;51.898;8.202;2023-05-07T23:04:42;8.57;;;7.77;;
14939;SDS011;11825;51.898;8.202;2023-05-07T23:09:44;9.40;;;8.60;;
14939;SDS011;11825;51.898;8.202;2023-05-07T23:14:46;8.53;;;7.73;;
14939;SDS011;11825;51.898;8.202;2023-05-07T23:19:47;8.70;;;7.80;;
14939;SDS011;11825;51.898;8.202;2023-05-07T23:24:49;9.13;;;8.33;;
14939;SDS011;11825;51.898;8.202;2023-05-07T23:29:51;7.80;;;7.20;;
14939;SDS011;11825;51.898;8.202;2023-05-07T23:34:53;9.10;;;8.23;;
14939;SDS011;11825;51.898;8.202;2023-05-07T23:39:56;8.20;;;7.47;;
14939;SDS011;11825;51.898;8.202;2023-05-07T23:45:02;9.40;;;8.40;;
14939;SDS011;11825;51.898;8.202;2023-05-07T23:50:05;10.47;;;8.70;;
14939;SDS011;11825;51.898;8.202;2023-05-07T23:55:07;9.20;;;8.33;;
